Time;durP1;ratioP1;P1;durP2;ratioP2;P2;SDS_P1;SDS_P2;PMS_P1;PMS_P2;Temp;Humidity;BMP_temperature;BMP_pressure;BME280_temperature;BME280_humidity;BME280_pressure;Samples;Min_cycle;Max_cycle;Signal;HPM_P1;HPM_P2
2021/12/03 00:00:56;;;;;;;357.17;333.87;;;3.10;99.90;;;;;;5068988;28;20547;-81
2021/12/03 00:03:22;;;;;;;360.20;336.07;;;3.10;99.90;;;;;;5068911;28;20202;-80
2021/12/03 00:05:50;;;;;;;358.83;334.70;;;3.10;99.90;;;;;;5069115;28;20835;-80
2021/12/03 00:08:15;;;;;;;357.67;333.83;;;3.10;99.90;;;;;;5064752;28;20193;-81
2021/12/03 00:10:43;;;;;;;358.00;334.37;;;3.10;99.90;;;;;;5036100;28;20788;-81
2021/12/03 00:13:09;;;;;;;368.83;343.80;;;3.10;99.90;;;;;;5036966;28;20223;-81
2021/12/03 00:15:36;;;;;;;362.60;338.43;;;3.10;99.90;;;;;;5053866;28;20235;-80
2021/12/03 00:18:03;;;;;;;354.27;330.60;;;3.10;99.90;;;;;;5064552;28;20190;-80
2021/12/03 00:20:28;;;;;;;355.00;331.47;;;3.10;99.90;;;;;;5068360;28;20236;-81
2021/12/03 00:22:57;;;;;;;360.23;336.33;;;3.10;99.90;;;;;;5069188;28;20517;-81
2021/12/03 00:25:24;;;;;;;362.73;338.33;;;3.20;99.90;;;;;;5086329;28;20201;-81
2021/12/03 00:27:50;;;;;;;359.97;335.97;;;3.20;99.90;;;;;;5062619;28;20186;-81
2021/12/03 00:30:17;;;;;;;353.03;329.20;;;3.20;99.90;;;;;;5086011;28;20202;-79
2021/12/03 00:32:44;;;;;;;356.53;332.37;;;3.20;99.90;;;;;;5051787;28;20585;-81
2021/12/03 00:35:10;;;;;;;353.63;329.27;;;3.20;99.90;;;;;;5080201;28;20209;-80
2021/12/03 00:37:38;;;;;;;359.13;334.97;;;3.30;99.90;;;;;;5035510;28;20238;-80
2021/12/03 00:40:11;;;;;;;356.53;332.20;;;3.30;99.90;;;;;;5066673;28;20186;-81
2021/12/03 00:42:38;;;;;;;358.60;333.80;;;3.30;99.90;;;;;;5067307;28;20181;-81
2021/12/03 00:45:05;;;;;;;355.73;331.73;;;3.30;99.90;;;;;;5061659;28;20204;-82
2021/12/03 00:47:32;;;;;;;355.97;331.93;;;3.30;99.90;;;;;;5061135;28;20647;-81
2021/12/03 00:49:58;;;;;;;358.90;334.50;;;3.30;99.90;;;;;;5060867;28;20284;-81
2021/12/03 00:52:24;;;;;;;364.33;339.70;;;3.30;99.90;;;;;;5062930;28;20190;-80
2021/12/03 00:54:49;;;;;;;358.93;334.63;;;3.30;99.90;;;;;;5047886;28;20246;-80
2021/12/03 00:57:17;;;;;;;357.27;332.40;;;3.30;99.90;;;;;;5063705;28;20333;-80
2021/12/03 00:59:43;;;;;;;358.77;334.73;;;3.30;99.90;;;;;;5049979;28;20197;-81
2021/12/03 01:02:09;;;;;;;357.90;333.83;;;3.20;99.90;;;;;;5061914;28;20205;-80
2021/12/03 01:04:35;;;;;;;360.10;335.97;;;3.30;99.90;;;;;;5084736;28;20209;-81
2021/12/03 01:07:02;;;;;;;353.20;329.57;;;3.30;99.90;;;;;;5060857;28;20299;-80
2021/12/03 01:09:28;;;;;;;352.90;329.37;;;3.30;99.90;;;;;;5044858;28;20190;-80
2021/12/03 01:11:54;;;;;;;355.57;331.77;;;3.30;99.90;;;;;;5066267;28;20253;-79
2021/12/03 01:14:20;;;;;;;353.67;330.07;;;3.30;99.90;;;;;;5068232;28;20189;-81
2021/12/03 01:16:46;;;;;;;355.20;331.30;;;3.30;99.90;;;;;;5051366;28;20213;-80
2021/12/03 01:19:12;;;;;;;354.80;331.00;;;3.30;99.90;;;;;;5062008;28;20206;-80
2021/12/03 01:21:38;;;;;;;352.23;328.57;;;3.40;99.90;;;;;;5062067;28;20213;-80
2021/12/03 01:24:05;;;;;;;352.97;329.03;;;3.40;99.90;;;;;;5051510;28;20199;-80
2021/12/03 01:26:33;;;;;;;355.63;332.10;;;3.40;99.90;;;;;;5084860;28;20666;-81
2021/12/03 01:28:59;;;;;;;353.13;329.50;;;3.50;99.90;;;;;;5066032;28;20178;-81
2021/12/03 01:31:25;;;;;;;353.10;329.20;;;3.50;99.90;;;;;;5067146;28;20213;-80
2021/12/03 01:33:51;;;;;;;355.97;331.17;;;3.50;99.90;;;;;;5062031;28;20752;-81
2021/12/03 01:36:16;;;;;;;354.43;330.60;;;3.50;99.90;;;;;;5049950;28;20259;-81
2021/12/03 01:38:43;;;;;;;353.53;329.87;;;3.50;99.90;;;;;;5049888;28;20651;-80
2021/12/03 01:41:09;;;;;;;354.63;330.33;;;3.50;99.90;;;;;;5050865;28;20267;-80
2021/12/03 01:43:35;;;;;;;354.87;331.23;;;3.60;99.90;;;;;;5051782;28;20253;-81
2021/12/03 01:46:05;;;;;;;349.17;325.80;;;3.60;99.90;;;;;;5044169;28;20201;-79
2021/12/03 01:48:31;;;;;;;352.33;328.73;;;3.60;99.90;;;;;;5061661;28;20198;-80
2021/12/03 01:50:57;;;;;;;349.40;326.10;;;3.60;99.90;;;;;;5065623;28;20237;-80
2021/12/03 01:53:26;;;;;;;348.40;325.17;;;3.70;99.90;;;;;;5058050;28;20549;-81
2021/12/03 01:55:56;;;;;;;343.97;320.60;;;3.70;99.90;;;;;;5082817;28;20185;-79
2021/12/03 01:58:22;;;;;;;347.73;324.73;;;3.70;99.90;;;;;;5062177;28;20213;-80
2021/12/03 02:00:53;;;;;;;338.10;315.50;;;3.70;99.90;;;;;;5061350;28;20209;-80
2021/12/03 02:03:24;;;;;;;334.30;312.63;;;3.80;99.90;;;;;;5060834;28;20243;-80
2021/12/03 02:05:51;;;;;;;333.10;311.17;;;3.70;99.90;;;;;;5060494;28;20609;-81
2021/12/03 02:08:17;;;;;;;333.93;312.23;;;3.70;99.90;;;;;;5028037;28;20289;-80
2021/12/03 02:10:44;;;;;;;335.03;313.47;;;3.70;99.90;;;;;;5051033;28;20197;-80
2021/12/03 02:13:11;;;;;;;334.67;313.23;;;3.60;99.90;;;;;;5060409;28;20562;-79
2021/12/03 02:15:38;;;;;;;340.97;319.23;;;3.60;99.90;;;;;;5059685;28;20186;-80
2021/12/03 02:18:05;;;;;;;335.30;313.67;;;3.60;99.90;;;;;;5080588;28;20185;-81
2021/12/03 02:20:32;;;;;;;335.07;313.40;;;3.60;99.90;;;;;;5060874;28;20828;-81
2021/12/03 02:22:58;;;;;;;330.80;309.20;;;3.60;99.90;;;;;;5067547;28;20236;-81
2021/12/03 02:25:26;;;;;;;326.87;305.70;;;3.60;99.90;;;;;;5049532;28;20277;-81
2021/12/03 02:27:55;;;;;;;325.50;304.43;;;3.60;99.90;;;;;;5066098;28;20213;-80
2021/12/03 02:30:23;;;;;;;317.70;297.47;;;3.60;99.90;;;;;;5061871;28;20193;-80
2021/12/03 02:32:50;;;;;;;306.40;287.17;;;3.60;99.90;;;;;;5051563;28;20293;-80
2021/12/03 02:35:18;;;;;;;297.20;278.30;;;3.60;99.90;;;;;;5077247;28;20570;-82
2021/12/03 02:37:44;;;;;;;287.40;270.00;;;3.60;99.90;;;;;;5059944;28;20202;-81
2021/12/03 02:40:11;;;;;;;274.67;257.97;;;3.70;99.90;;;;;;5058594;28;20181;-80
2021/12/03 02:42:38;;;;;;;268.37;252.43;;;3.60;99.90;;;;;;5073841;28;20215;-80
2021/12/03 02:45:04;;;;;;;260.93;244.60;;;3.70;99.90;;;;;;5044590;28;20186;-79
2021/12/03 02:47:30;;;;;;;252.00;237.30;;;3.70;99.90;;;;;;5062247;28;20312;-79
2021/12/03 02:49:56;;;;;;;241.13;226.83;;;3.70;99.90;;;;;;5067564;28;20304;-80
2021/12/03 02:52:22;;;;;;;237.43;223.73;;;3.70;99.90;;;;;;5060839;28;20200;-80
2021/12/03 02:54:48;;;;;;;236.67;222.43;;;3.70;99.90;;;;;;5061891;28;20193;-80
2021/12/03 02:57:14;;;;;;;229.03;215.80;;;3.70;99.90;;;;;;5061668;28;20256;-80
2021/12/03 02:59:40;;;;;;;230.60;217.10;;;3.70;99.90;;;;;;5060328;28;20190;-81
2021/12/03 03:02:06;;;;;;;226.93;213.83;;;3.70;99.90;;;;;;5032882;28;20216;-81
2021/12/03 03:04:32;;;;;;;227.00;214.10;;;3.70;99.90;;;;;;5075915;28;20254;-81
2021/12/03 03:06:57;;;;;;;223.77;210.77;;;3.70;99.90;;;;;;5058529;28;20194;-81
2021/12/03 03:09:24;;;;;;;225.27;212.57;;;3.70;99.90;;;;;;5049856;28;20238;-81
2021/12/03 03:11:51;;;;;;;222.13;209.10;;;3.70;99.90;;;;;;5047661;28;20189;-79
2021/12/03 03:14:17;;;;;;;222.67;209.83;;;3.70;99.90;;;;;;5043301;28;20193;-81
2021/12/03 03:16:43;;;;;;;221.47;208.23;;;3.70;99.90;;;;;;5050759;28;20212;-80
2021/12/03 03:19:15;;;;;;;217.07;204.30;;;3.80;99.90;;;;;;5064851;28;20264;-81
2021/12/03 03:21:41;;;;;;;217.43;204.50;;;3.80;99.90;;;;;;5065886;28;20214;-79
2021/12/03 03:24:08;;;;;;;214.13;201.53;;;3.90;99.90;;;;;;5065465;28;20674;-81
2021/12/03 03:26:37;;;;;;;209.47;197.67;;;3.90;99.90;;;;;;5069701;28;20212;-81
2021/12/03 03:29:05;;;;;;;205.60;193.03;;;4.00;99.90;;;;;;5032334;28;20205;-80
2021/12/03 03:31:35;;;;;;;201.63;190.23;;;4.00;99.90;;;;;;5064092;28;20185;-81
2021/12/03 03:34:02;;;;;;;200.63;189.03;;;4.10;99.90;;;;;;5029631;28;20651;-80
2021/12/03 03:36:32;;;;;;;204.13;191.87;;;4.10;99.90;;;;;;5052790;28;20240;-81
2021/12/03 03:38:58;;;;;;;199.43;187.63;;;4.20;99.90;;;;;;5065685;28;20610;-81
2021/12/03 03:41:24;;;;;;;198.63;187.03;;;4.20;99.90;;;;;;5063355;28;20219;-80
2021/12/03 03:43:50;;;;;;;197.47;186.07;;;4.30;99.90;;;;;;5064979;28;20696;-81
2021/12/03 03:46:16;;;;;;;193.60;182.50;;;4.30;99.90;;;;;;5052596;28;20190;-80
2021/12/03 03:48:41;;;;;;;193.80;182.70;;;4.30;99.90;;;;;;5053440;28;20370;-80
2021/12/03 03:51:07;;;;;;;232.33;218.87;;;4.30;99.90;;;;;;5069227;28;20241;-80
2021/12/03 03:53:33;;;;;;;341.83;320.53;;;4.40;99.90;;;;;;5065209;28;20189;-80
2021/12/03 03:55:59;;;;;;;354.53;331.37;;;4.40;99.90;;;;;;5051898;28;20186;-80
2021/12/03 03:58:24;;;;;;;363.20;338.80;;;4.40;99.90;;;;;;5064608;28;20324;-80
2021/12/03 04:00:51;;;;;;;369.67;344.67;;;4.40;99.90;;;;;;5034438;28;20213;-80
2021/12/03 04:03:17;;;;;;;367.33;342.67;;;4.30;99.90;;;;;;5052698;28;20214;-80
2021/12/03 04:05:43;;;;;;;362.60;338.67;;;4.40;99.90;;;;;;5068218;28;20213;-81
2021/12/03 04:08:09;;;;;;;357.47;333.80;;;4.30;99.90;;;;;;5065193;28;20514;-80
2021/12/03 04:10:35;;;;;;;351.83;328.70;;;4.30;99.90;;;;;;5070113;28;20194;-80
2021/12/03 04:13:01;;;;;;;349.77;326.87;;;4.30;99.90;;;;;;5085858;28;20194;-81
2021/12/03 04:15:27;;;;;;;350.23;327.03;;;4.30;99.90;;;;;;5052215;28;20285;-81
2021/12/03 04:17:52;;;;;;;352.63;329.27;;;4.30;99.90;;;;;;5053203;28;20213;-81
2021/12/03 04:20:19;;;;;;;351.90;328.77;;;4.30;99.90;;;;;;5060102;28;20218;-80
2021/12/03 04:22:45;;;;;;;352.20;328.80;;;4.30;99.90;;;;;;5080784;28;20267;-81
2021/12/03 04:25:13;;;;;;;351.83;328.77;;;4.30;99.90;;;;;;5068858;28;20670;-81
2021/12/03 04:27:40;;;;;;;354.83;331.37;;;4.30;99.90;;;;;;5062988;28;20185;-80
2021/12/03 04:30:09;;;;;;;350.00;326.97;;;4.20;99.90;;;;;;5068047;28;20194;-80
2021/12/03 04:32:35;;;;;;;353.23;329.47;;;4.20;99.90;;;;;;5068866;28;20193;-81
2021/12/03 04:35:00;;;;;;;356.53;333.53;;;4.20;99.90;;;;;;5067746;28;20215;-80
2021/12/03 04:37:26;;;;;;;347.87;324.90;;;4.20;99.90;;;;;;5051495;28;20217;-80
2021/12/03 04:39:52;;;;;;;344.27;321.50;;;4.30;99.90;;;;;;5052241;28;20214;-81
2021/12/03 04:42:17;;;;;;;349.93;327.27;;;4.30;99.90;;;;;;5052166;28;20312;-81
2021/12/03 04:44:43;;;;;;;341.20;318.40;;;4.30;99.90;;;;;;5052483;28;20207;-80
2021/12/03 04:47:09;;;;;;;348.50;325.57;;;4.30;99.90;;;;;;5052656;28;20201;-81
2021/12/03 04:49:36;;;;;;;342.00;320.07;;;4.40;99.90;;;;;;5051794;28;20206;-80
2021/12/03 04:52:02;;;;;;;353.07;329.73;;;4.30;99.90;;;;;;5069267;28;20260;-81
2021/12/03 04:54:28;;;;;;;340.57;318.57;;;4.30;99.90;;;;;;5062866;28;20178;-82
2021/12/03 04:56:55;;;;;;;336.20;313.37;;;4.30;99.90;;;;;;5034842;28;20185;-81
2021/12/03 04:59:21;;;;;;;339.03;317.10;;;4.30;99.90;;;;;;5061252;28;20178;-81
2021/12/03 05:01:48;;;;;;;332.37;310.63;;;4.30;99.90;;;;;;5051621;28;20243;-79
2021/12/03 05:04:14;;;;;;;336.53;313.87;;;4.30;99.90;;;;;;5056252;28;20206;-81
2021/12/03 05:06:53;;;;;;;335.37;313.20;;;4.30;99.90;;;;;;5051464;28;20204;-81
2021/12/03 05:09:20;;;;;;;332.33;310.83;;;4.40;99.90;;;;;;5067842;28;20241;-79
2021/12/03 05:11:46;;;;;;;339.80;317.50;;;4.40;99.90;;;;;;5051684;28;20194;-79
2021/12/03 05:14:12;;;;;;;331.73;309.73;;;4.40;99.90;;;;;;5033623;28;20574;-79
2021/12/03 05:16:38;;;;;;;321.77;300.53;;;4.40;99.90;;;;;;5067260;28;20270;-80
2021/12/03 05:19:04;;;;;;;314.77;294.77;;;4.40;99.90;;;;;;5075892;28;20593;-81
2021/12/03 05:21:30;;;;;;;308.43;288.03;;;4.40;99.90;;;;;;5033773;28;20201;-80
2021/12/03 05:23:56;;;;;;;300.53;281.20;;;4.40;99.90;;;;;;5066123;28;20189;-81
2021/12/03 05:26:22;;;;;;;289.30;270.30;;;4.40;99.90;;;;;;5060669;28;20187;-80
2021/12/03 05:28:48;;;;;;;287.77;268.20;;;4.40;99.90;;;;;;5067179;28;20200;-80
2021/12/03 05:31:14;;;;;;;287.53;269.57;;;4.50;99.90;;;;;;5049875;28;20194;-81
2021/12/03 05:33:40;;;;;;;282.90;264.77;;;4.50;99.90;;;;;;5078287;28;20218;-80
2021/12/03 05:36:05;;;;;;;278.77;261.00;;;4.50;99.90;;;;;;5063094;28;20294;-80
2021/12/03 05:38:32;;;;;;;277.87;260.10;;;4.50;99.90;;;;;;5044271;28;20217;-81
2021/12/03 05:40:58;;;;;;;270.33;252.83;;;4.50;99.90;;;;;;5067458;28;20217;-81
2021/12/03 05:43:24;;;;;;;269.17;251.70;;;4.50;99.90;;;;;;5061812;28;20857;-81
2021/12/03 05:45:50;;;;;;;266.83;249.50;;;4.50;99.90;;;;;;5068311;28;20189;-80
2021/12/03 05:48:15;;;;;;;264.77;248.07;;;4.50;99.90;;;;;;5050155;28;20205;-80
2021/12/03 05:50:42;;;;;;;259.83;243.43;;;4.50;99.90;;;;;;5061555;28;20589;-81
2021/12/03 05:53:08;;;;;;;252.57;236.73;;;4.50;99.90;;;;;;5061387;28;20614;-81
2021/12/03 05:55:34;;;;;;;235.10;221.00;;;4.50;99.90;;;;;;5050624;28;20194;-81
2021/12/03 05:58:00;;;;;;;226.97;213.07;;;4.60;99.90;;;;;;5034911;28;20186;-80
2021/12/03 06:00:29;;;;;;;217.00;203.23;;;4.50;99.90;;;;;;5063662;28;20239;-81
2021/12/03 06:02:57;;;;;;;221.03;207.50;;;4.50;99.90;;;;;;5063162;28;20277;-79
2021/12/03 06:05:25;;;;;;;212.83;199.30;;;4.50;99.90;;;;;;5066756;28;20206;-81
2021/12/03 06:07:51;;;;;;;209.57;197.07;;;4.50;99.90;;;;;;5049054;28;20678;-80
2021/12/03 06:10:18;;;;;;;195.10;182.97;;;4.50;99.90;;;;;;5061891;28;20182;-80
2021/12/03 06:12:44;;;;;;;197.67;185.43;;;4.60;99.90;;;;;;5051236;28;20220;-80
2021/12/03 06:15:10;;;;;;;193.63;181.93;;;4.60;99.90;;;;;;5050109;28;20197;-81
2021/12/03 06:17:36;;;;;;;189.43;178.10;;;4.60;99.90;;;;;;5061174;28;20177;-80
2021/12/03 06:20:03;;;;;;;193.33;181.20;;;4.60;99.90;;;;;;5028601;28;20665;-81
2021/12/03 06:22:29;;;;;;;178.80;167.83;;;4.60;99.90;;;;;;5049827;28;20212;-82
2021/12/03 06:24:56;;;;;;;182.40;171.77;;;4.50;99.90;;;;;;5050388;28;20182;-80
2021/12/03 06:27:24;;;;;;;185.23;173.60;;;4.50;99.90;;;;;;5063214;28;20194;-80
2021/12/03 06:29:51;;;;;;;181.93;170.97;;;4.50;99.90;;;;;;5062566;28;20185;-80
2021/12/03 06:32:16;;;;;;;178.83;168.13;;;4.50;99.90;;;;;;5077765;28;20266;-80
2021/12/03 06:34:42;;;;;;;179.93;169.17;;;4.50;99.90;;;;;;5063357;28;20308;-81
2021/12/03 06:37:09;;;;;;;166.67;156.20;;;4.50;99.90;;;;;;5033266;28;20716;-81
2021/12/03 06:39:35;;;;;;;173.57;162.93;;;4.50;99.90;;;;;;5049680;28;20217;-80
2021/12/03 06:42:01;;;;;;;167.87;157.90;;;4.60;99.90;;;;;;5064908;28;21862;-82
2021/12/03 06:44:27;;;;;;;164.03;153.60;;;4.50;99.90;;;;;;5044005;28;20189;-80
2021/12/03 06:46:55;;;;;;;164.53;154.73;;;4.50;99.90;;;;;;5048074;28;20335;-81
2021/12/03 06:49:23;;;;;;;165.40;155.70;;;4.50;99.90;;;;;;5066561;28;20197;-81
2021/12/03 06:51:51;;;;;;;163.07;152.97;;;4.50;99.90;;;;;;5061941;28;20233;-82
2021/12/03 06:54:26;;;;;;;165.17;154.83;;;4.50;99.90;;;;;;5061645;28;20190;-80
2021/12/03 06:57:08;;;;;;;157.73;147.97;;;4.50;99.90;;;;;;5064618;28;20190;-81
2021/12/03 06:59:36;;;;;;;160.73;150.83;;;4.50;99.90;;;;;;5076494;28;20201;-81
2021/12/03 07:02:03;;;;;;;155.67;146.30;;;4.40;99.90;;;;;;5061275;28;20587;-81
2021/12/03 07:04:28;;;;;;;155.30;145.67;;;4.40;99.90;;;;;;5062113;28;20652;-81
2021/12/03 07:06:55;;;;;;;153.63;144.57;;;4.40;99.90;;;;;;5033409;28;20280;-80
2021/12/03 07:09:21;;;;;;;152.73;144.13;;;4.40;99.90;;;;;;5048307;28;20649;-81
2021/12/03 07:11:47;;;;;;;149.30;140.60;;;4.40;99.90;;;;;;5031547;28;20182;-79
2021/12/03 07:14:13;;;;;;;144.40;135.37;;;4.30;99.90;;;;;;5048119;28;20303;-80
2021/12/03 07:16:38;;;;;;;142.43;134.47;;;4.30;99.90;;;;;;5047147;28;20205;-81
2021/12/03 07:19:06;;;;;;;138.43;130.90;;;4.30;99.90;;;;;;5050699;28;20297;-82
2021/12/03 07:21:32;;;;;;;145.87;136.97;;;4.30;99.90;;;;;;5048460;28;20217;-81
2021/12/03 07:23:58;;;;;;;134.63;127.10;;;4.20;99.90;;;;;;5064660;28;20818;-80
2021/12/03 07:26:24;;;;;;;142.43;134.03;;;4.20;99.90;;;;;;5077628;28;20264;-79
2021/12/03 07:28:51;;;;;;;143.30;135.43;;;4.20;99.90;;;;;;5048771;28;20725;-82
2021/12/03 07:31:17;;;;;;;139.70;131.37;;;4.20;99.90;;;;;;5065559;28;20547;-82
2021/12/03 07:33:43;;;;;;;130.00;122.53;;;4.20;99.90;;;;;;5061607;28;20277;-78
2021/12/03 07:36:10;;;;;;;128.80;121.27;;;4.20;99.90;;;;;;5064464;28;20205;-80
2021/12/03 07:38:36;;;;;;;131.50;124.20;;;4.20;99.90;;;;;;5074988;28;20200;-80
2021/12/03 07:41:04;;;;;;;133.47;125.80;;;4.20;99.90;;;;;;5062209;28;20221;-81
2021/12/03 07:43:30;;;;;;;138.20;130.20;;;4.20;99.90;;;;;;5062252;28;20193;-79
2021/12/03 07:45:56;;;;;;;135.00;127.50;;;4.20;99.90;;;;;;5078155;28;20178;-79
2021/12/03 07:48:23;;;;;;;132.07;124.40;;;4.20;99.90;;;;;;5076352;28;20189;-81
2021/12/03 07:50:50;;;;;;;134.87;127.63;;;4.20;99.90;;;;;;5048900;28;20253;-82
2021/12/03 07:53:18;;;;;;;129.73;121.90;;;4.30;99.90;;;;;;5050688;28;20682;-82
2021/12/03 07:55:45;;;;;;;124.90;117.70;;;4.20;99.90;;;;;;5066782;28;20190;-82
2021/12/03 07:58:11;;;;;;;123.03;115.80;;;4.20;99.90;;;;;;5051093;28;20206;-81
2021/12/03 08:00:39;;;;;;;130.03;122.47;;;4.20;99.90;;;;;;5033883;28;20200;-81
2021/12/03 08:03:05;;;;;;;120.80;113.17;;;4.30;99.90;;;;;;5050113;28;20182;-81
2021/12/03 08:05:30;;;;;;;118.47;111.17;;;4.30;99.90;;;;;;5068567;28;20250;-82
2021/12/03 08:07:58;;;;;;;122.90;115.43;;;4.30;99.90;;;;;;5051184;28;20190;-81
2021/12/03 08:10:25;;;;;;;114.97;108.73;;;4.30;99.90;;;;;;5063219;28;20839;-81
2021/12/03 08:12:50;;;;;;;116.87;110.30;;;4.30;99.90;;;;;;5063019;28;20244;-81
2021/12/03 08:15:17;;;;;;;115.93;109.10;;;4.30;99.90;;;;;;5052124;28;20178;-81
2021/12/03 08:17:42;;;;;;;124.60;117.60;;;4.30;99.90;;;;;;5063988;28;20181;-79
2021/12/03 08:20:09;;;;;;;121.47;114.20;;;4.30;99.90;;;;;;5050398;28;20220;-82
2021/12/03 08:22:35;;;;;;;122.73;115.70;;;4.40;99.90;;;;;;5052350;28;20301;-80
2021/12/03 08:25:02;;;;;;;120.77;113.37;;;4.40;99.90;;;;;;5068083;28;20280;-81
2021/12/03 08:27:27;;;;;;;113.50;107.03;;;4.40;99.90;;;;;;5036890;28;20205;-80
2021/12/03 08:29:53;;;;;;;119.77;112.77;;;4.40;99.90;;;;;;5068986;28;20209;-81
2021/12/03 08:32:19;;;;;;;117.47;110.80;;;4.40;99.90;;;;;;5051992;28;20220;-81
2021/12/03 08:34:45;;;;;;;118.77;111.33;;;4.40;99.90;;;;;;5052167;28;20216;-81
2021/12/03 08:37:11;;;;;;;120.63;114.13;;;4.40;99.90;;;;;;5052327;28;20201;-81
2021/12/03 08:39:37;;;;;;;119.70;113.10;;;4.50;99.90;;;;;;5051821;28;20190;-81
2021/12/03 08:42:04;;;;;;;110.50;104.43;;;4.50;99.90;;;;;;5063836;28;20205;-81
2021/12/03 08:44:30;;;;;;;108.60;102.70;;;4.50;99.90;;;;;;5063171;28;20190;-79
2021/12/03 08:47:02;;;;;;;107.87;102.07;;;4.60;99.90;;;;;;5035750;28;20186;-81
2021/12/03 08:49:31;;;;;;;101.87;96.30;;;4.60;99.90;;;;;;5062619;28;20197;-80
2021/12/03 08:57:32;;;;;;;101.47;95.30;;;4.80;99.90;;;;;;5081621;28;20200;-81
2021/12/03 09:00:05;;;;;;;96.27;91.03;;;4.80;99.90;;;;;;5062448;28;20776;-80
2021/12/03 09:02:31;;;;;;;98.13;92.87;;;4.90;99.90;;;;;;5067760;28;20201;-81
2021/12/03 09:04:56;;;;;;;95.57;89.77;;;4.80;99.90;;;;;;5068573;28;20573;-80
2021/12/03 09:07:23;;;;;;;88.53;83.43;;;4.90;99.90;;;;;;5035618;28;20247;-81
2021/12/03 09:09:49;;;;;;;86.63;81.80;;;4.90;99.90;;;;;;5051778;28;20605;-81
2021/12/03 09:12:15;;;;;;;85.00;79.80;;;4.90;99.90;;;;;;5051147;28;20265;-80
2021/12/03 09:14:56;;;;;;;81.30;76.20;;;4.90;99.90;;;;;;5061836;28;20302;-81
2021/12/03 09:22:46;;;;;;;86.87;80.70;;;4.80;99.90;;;;;;5041935;28;20229;-81
2021/12/03 09:25:17;;;;;;;84.27;78.80;;;4.90;99.90;;;;;;5045203;28;20282;-81
2021/12/03 09:27:43;;;;;;;87.40;81.47;;;4.80;99.90;;;;;;5044489;28;20324;-81
2021/12/03 09:30:13;;;;;;;87.00;81.40;;;4.80;99.90;;;;;;5050238;28;20638;-81
2021/12/03 09:32:42;;;;;;;85.50;79.60;;;4.80;99.90;;;;;;5062620;28;20235;-81
2021/12/03 09:35:12;;;;;;;87.57;81.67;;;4.80;99.90;;;;;;5050935;28;20260;-81
2021/12/03 09:37:37;;;;;;;91.80;85.50;;;4.80;99.90;;;;;;5049971;28;20279;-81
2021/12/03 09:40:07;;;;;;;87.67;81.93;;;4.70;99.90;;;;;;5061106;28;20631;-80
2021/12/03 09:42:37;;;;;;;88.80;83.13;;;4.70;99.90;;;;;;5066274;28;20325;-81
2021/12/03 09:45:04;;;;;;;83.77;78.37;;;4.80;99.90;;;;;;5067726;28;20205;-81
2021/12/03 09:47:30;;;;;;;85.17;79.07;;;4.70;99.90;;;;;;5051151;28;20196;-81
2021/12/03 09:49:57;;;;;;;86.23;80.27;;;4.70;99.90;;;;;;5068630;28;20202;-80
2021/12/03 09:55:29;;;;;;;93.10;86.53;;;4.60;99.90;;;;;;5051889;28;20243;-81
2021/12/03 10:03:16;;;;;;;93.53;86.87;;;4.50;99.90;;;;;;5066430;28;20212;-80
2021/12/03 10:17:19;;;;;;;95.93;89.20;;;4.40;99.90;;;;;;5051902;28;20296;-82
2021/12/03 10:41:50;;;;;;;89.10;82.97;;;4.90;99.90;;;;;;5061478;28;20223;-80
2021/12/03 10:44:47;;;;;;;88.33;82.70;;;5.00;99.90;;;;;;5060026;28;20195;-79
2021/12/03 10:50:09;;;;;;;83.30;78.13;;;5.10;99.90;;;;;;5064126;28;20206;-82
2021/12/03 10:52:56;;;;;;;83.00;77.87;;;5.10;99.90;;;;;;5060552;28;20193;-80
2021/12/03 10:56:15;;;;;;;85.77;80.30;;;5.10;99.90;;;;;;5066986;28;20189;-80
2021/12/03 11:34:03;;;;;;;80.53;75.40;;;5.30;99.90;;;;;;5051893;28;20208;-81
2021/12/03 11:36:58;;;;;;;80.50;75.50;;;5.20;99.90;;;;;;5058798;28;20259;-81
2021/12/03 11:54:35;;;;;;;76.70;72.20;;;5.40;99.90;;;;;;5063346;28;20200;-79
2021/12/03 13:12:56;;;;;;;73.17;68.57;;;5.50;99.90;;;;;;5068687;28;20192;-81
2021/12/03 13:24:18;;;;;;;78.77;74.37;;;5.40;99.90;;;;;;5062881;28;20189;-82
2021/12/03 13:32:55;;;;;;;82.40;77.97;;;5.50;99.90;;;;;;5067332;28;20193;-81
2021/12/03 14:54:26;;;;;;;300.00;284.43;;;5.30;99.90;;;;;;5048632;28;20254;-80
2021/12/03 14:57:14;;;;;;;313.83;296.80;;;5.20;99.90;;;;;;5059874;28;20181;-81
2021/12/03 15:08:42;;;;;;;359.83;338.83;;;5.30;99.90;;;;;;5060895;28;20235;-82
2021/12/03 15:35:16;;;;;;;390.73;366.97;;;5.20;99.90;;;;;;5067601;28;20247;-82
2021/12/03 15:38:10;;;;;;;390.50;366.43;;;5.30;99.90;;;;;;5054108;28;20210;-82
2021/12/03 16:10:30;;;;;;;340.70;320.60;;;5.40;99.90;;;;;;5068264;28;20264;-82
2021/12/03 16:13:11;;;;;;;342.50;322.27;;;5.40;99.90;;;;;;5052334;28;20219;-82
2021/12/03 16:52:59;;;;;;;240.60;227.10;;;5.60;99.90;;;;;;5068765;28;20316;-80
2021/12/03 16:55:25;;;;;;;231.27;217.57;;;5.60;99.90;;;;;;5068013;28;20194;-82
2021/12/03 16:57:53;;;;;;;223.50;210.67;;;5.60;99.90;;;;;;5051393;28;20697;-80
2021/12/03 17:00:39;;;;;;;225.20;212.53;;;5.60;99.90;;;;;;5046554;28;20275;-82
2021/12/03 17:03:19;;;;;;;220.10;207.27;;;5.60;99.90;;;;;;5062254;28;20202;-81
2021/12/03 17:16:49;;;;;;;188.90;177.13;;;5.50;99.90;;;;;;5083046;28;20185;-82
2021/12/03 17:23:04;;;;;;;186.17;175.20;;;5.60;99.90;;;;;;5016606;28;21177;-81
2021/12/03 17:47:00;;;;;;;156.23;147.00;;;5.70;99.90;;;;;;5065783;28;20196;-80
2021/12/03 17:49:44;;;;;;;155.13;145.97;;;5.70;99.90;;;;;;5064470;28;20215;-81
2021/12/03 18:00:06;;;;;;;150.50;141.43;;;5.70;99.90;;;;;;5062347;28;20189;-81
2021/12/03 18:02:39;;;;;;;148.67;139.77;;;5.80;99.90;;;;;;5062198;28;20203;-81
2021/12/03 18:05:23;;;;;;;145.50;136.67;;;5.70;99.90;;;;;;5059818;28;20210;-79
2021/12/03 18:55:58;;;;;;;463.57;432.00;;;5.50;99.90;;;;;;5063926;28;20531;-82
2021/12/03 18:58:26;;;;;;;590.13;544.97;;;5.50;99.90;;;;;;5068194;28;20362;-82
2021/12/03 19:00:53;;;;;;;500.53;464.27;;;5.50;99.90;;;;;;5045277;28;20185;-81
2021/12/03 19:11:06;;;;;;;524.13;485.30;;;5.40;99.90;;;;;;5061062;28;20258;-80
2021/12/03 19:13:38;;;;;;;533.23;493.37;;;5.40;99.90;;;;;;5035528;28;20618;-80
2021/12/03 19:16:09;;;;;;;540.77;500.60;;;5.40;99.90;;;;;;5061008;28;20178;-80
2021/12/03 19:18:35;;;;;;;540.90;500.53;;;5.40;99.90;;;;;;5061233;28;20265;-80
2021/12/03 19:21:06;;;;;;;545.10;504.70;;;5.40;99.90;;;;;;5032036;28;20273;-80
2021/12/03 19:23:33;;;;;;;617.67;569.97;;;5.30;99.90;;;;;;5048565;28;20195;-80
2021/12/03 19:25:59;;;;;;;608.87;561.90;;;5.30;99.90;;;;;;5057470;28;20594;-79
2021/12/03 19:28:24;;;;;;;566.03;524.00;;;5.30;99.90;;;;;;5048177;28;20253;-81
2021/12/03 19:30:52;;;;;;;567.00;524.63;;;5.40;99.90;;;;;;5064728;28;20197;-82
2021/12/03 19:33:18;;;;;;;606.67;559.70;;;5.30;99.90;;;;;;5077768;28;21002;-82
2021/12/03 19:35:44;;;;;;;568.10;525.33;;;5.30;99.90;;;;;;5048839;28;20230;-81
2021/12/03 19:38:11;;;;;;;573.37;530.40;;;5.30;99.90;;;;;;5047903;28;20277;-80
2021/12/03 19:40:40;;;;;;;575.27;532.07;;;5.30;99.90;;;;;;5034368;28;20600;-80
2021/12/03 19:43:10;;;;;;;574.87;531.10;;;5.40;99.90;;;;;;5047812;28;20272;-81
2021/12/03 19:45:43;;;;;;;629.53;580.83;;;5.40;99.90;;;;;;5048543;28;20185;-81
2021/12/03 19:48:14;;;;;;;623.33;574.83;;;5.30;99.90;;;;;;5049841;28;20179;-81
2021/12/03 19:50:43;;;;;;;630.07;581.57;;;5.40;99.90;;;;;;5061578;28;20324;-81
2021/12/03 19:53:13;;;;;;;628.23;579.63;;;5.40;99.90;;;;;;5061377;28;20208;-82
2021/12/03 19:55:40;;;;;;;616.97;568.97;;;5.30;99.90;;;;;;5061487;28;20289;-83
2021/12/03 19:58:07;;;;;;;604.23;558.03;;;5.30;99.90;;;;;;5046247;28;20939;-81
2021/12/03 20:00:33;;;;;;;618.70;571.17;;;5.40;99.90;;;;;;5067584;28;20273;-81
2021/12/03 20:02:59;;;;;;;628.57;580.60;;;5.40;99.90;;;;;;5055591;28;20217;-81
2021/12/03 20:05:25;;;;;;;627.63;579.20;;;5.30;99.90;;;;;;5065574;28;20957;-81
2021/12/03 20:07:52;;;;;;;639.33;590.90;;;5.40;99.90;;;;;;5064846;28;20194;-81
2021/12/03 20:10:21;;;;;;;632.20;584.30;;;5.40;99.90;;;;;;5054909;28;20197;-82
2021/12/03 20:12:47;;;;;;;617.73;570.90;;;5.40;99.90;;;;;;5049052;28;20281;-81
2021/12/03 20:15:22;;;;;;;628.13;580.23;;;5.30;99.90;;;;;;5051162;28;20564;-81
2021/12/03 20:17:53;;;;;;;650.07;600.77;;;5.30;99.90;;;;;;5051824;28;20811;-81
2021/12/03 20:20:18;;;;;;;642.30;593.20;;;5.30;99.90;;;;;;5038196;28;20581;-81